»·PEaware :: JZA1059 KSBA-KSAN

JZA1059 :: KSBA-KSAN

FLIGHT INFORMATION

Flight Status: Arrived
Operator:
Air Canada Jazz
More flights by this operator :: More flights under this callsign
Pilot: Tyler W. (3962)
Aircraft: CANADAIR CL-600 CRJ-200
(CRJ2)
More flights by this aircraft type
Origin: KSBA Santa Barbara Mun
United States
Destination: KSAN San Diego Intl-Lindbergh
United States
More flights between these airports :: More routes between these airports
Route: KWANG VTU V208 SXC V208 LAX118R CARDI MZB320R MZB
File this flight plan on PilotEdge
Remarks: TEC route SBAN29
Altitude:
(Current/Filed)
11,000ft
Speed:
(Current/Filed)
152kts
Departed: 14-Jun-15 10:07 PM
Arrived: 14-Jun-15 11:02 PM
Distance/Time
Traveled:
167nm/0:54
Distance/Time
To Go:
Arrived

Flight Plot

Page will automatically refresh every two minutes.


Map Options




Map Legend


Flown Route
Filed Route
Departure Airport
Arrival Airport
Navaid (VOR, NDB)
Fix

Horizontal Profiles

Position Reports

Time Latitude Longitude Heading Altitude Ground
Speed
14-Jun-15 21:25 34.424334 -119.837113 121 18ft 0kts
14-Jun-15 21:26 34.424334 -119.837113 121 18ft 0kts
14-Jun-15 21:27 34.424334 -119.837113 121 18ft 0kts
14-Jun-15 21:28 34.424334 -119.837113 121 18ft 0kts
14-Jun-15 21:29 34.424334 -119.837113 121 18ft 0kts
14-Jun-15 21:30 34.424334 -119.837113 121 18ft 0kts
14-Jun-15 21:31 34.424334 -119.837113 121 18ft 0kts
14-Jun-15 21:32 34.424334 -119.837113 121 18ft 0kts
14-Jun-15 21:33 34.424334 -119.837113 121 18ft 0kts
14-Jun-15 21:34 34.424334 -119.837113 121 18ft 0kts
14-Jun-15 21:35 34.424334 -119.837113 121 18ft 0kts
14-Jun-15 21:36 34.424334 -119.837113 121 18ft 0kts
14-Jun-15 21:37 34.424334 -119.837113 121 18ft 0kts
14-Jun-15 21:38 34.424334 -119.837113 121 18ft 0kts
14-Jun-15 21:39 34.424334 -119.837113 121 18ft 0kts
14-Jun-15 21:40 34.424334 -119.837113 121 18ft 0kts
14-Jun-15 21:41 34.424334 -119.837113 121 18ft 0kts
14-Jun-15 21:42 34.424020 -119.837013 105 18ft 0kts
14-Jun-15 21:43 34.424020 -119.837013 105 18ft 0kts
14-Jun-15 21:44 34.424020 -119.837013 105 18ft 0kts
14-Jun-15 21:45 34.424020 -119.837013 105 18ft 0kts
14-Jun-15 21:46 34.424020 -119.837013 105 18ft 0kts
14-Jun-15 21:47 34.424020 -119.837013 105 18ft 0kts
14-Jun-15 21:48 34.424020 -119.837013 105 18ft 0kts
14-Jun-15 21:49 34.424020 -119.837013 105 18ft 0kts
14-Jun-15 21:50 34.424020 -119.837013 105 18ft 0kts
14-Jun-15 21:51 34.424020 -119.837013 105 18ft 0kts
14-Jun-15 21:52 34.424020 -119.837013 105 18ft 0kts
14-Jun-15 21:53 34.424020 -119.837013 105 18ft 0kts
14-Jun-15 21:54 34.424020 -119.837013 105 18ft 0kts
14-Jun-15 21:55 34.424020 -119.837013 105 18ft 0kts
14-Jun-15 21:56 34.424020 -119.837013 105 18ft 0kts
14-Jun-15 21:57 34.424020 -119.837013 105 18ft 0kts
14-Jun-15 21:58 34.424049 -119.837142 105 18ft 0kts
14-Jun-15 21:59 34.424082 -119.837282 106 18ft 0kts
14-Jun-15 22:00 34.424090 -119.837318 106 18ft 0kts
14-Jun-15 22:01 34.425314 -119.838024 341 18ft 8kts
14-Jun-15 22:02 34.426546 -119.843776 271 18ft 61kts
14-Jun-15 22:03 34.426275 -119.853594 314 18ft 0kts
14-Jun-15 22:04 34.426275 -119.853594 314 18ft 0kts
14-Jun-15 22:05 34.426275 -119.853594 314 18ft 0kts
14-Jun-15 22:06 34.426278 -119.853598 314 18ft 0kts
14-Jun-15 22:07 34.426278 -119.853598 314 18ft 0kts
14-Jun-15 22:08 34.426278 -119.853598 314 18ft 0kts
14-Jun-15 22:09 34.426346 -119.853683 314 18ft 0kts
14-Jun-15 22:10 34.426367 -119.853710 314 18ft 0kts
14-Jun-15 22:11 34.426367 -119.853710 314 18ft 0kts
14-Jun-15 22:12 34.426367 -119.853710 314 18ft 0kts
14-Jun-15 22:13 34.426926 -119.854278 331 18ft 0kts
14-Jun-15 22:14 34.427423 -119.834280 80 262ft 165kts
14-Jun-15 22:15 34.422441 -119.757071 103 2442ft 301kts
14-Jun-15 22:16 34.369470 -119.674947 130 5945ft 308kts
14-Jun-15 22:17 34.320058 -119.601427 136 7073ft 263kts
14-Jun-15 22:18 34.269785 -119.542123 126 9833ft 284kts
14-Jun-15 22:19 34.234068 -119.448190 113 10553ft 331kts
14-Jun-15 22:20 34.195148 -119.335572 109 11674ft 413kts
14-Jun-15 22:21 34.153016 -119.212498 111 11523ft 416kts
14-Jun-15 22:22 34.109565 -119.088400 122 11199ft 409kts
14-Jun-15 22:23 34.032422 -119.018671 181 11412ft 349kts
14-Jun-15 22:24 33.964878 -119.033420 192 11065ft 382kts
14-Jun-15 22:25 33.964878 -119.033420 192 11065ft 382kts
14-Jun-15 22:26 33.903638 -119.049073 187 10605ft 424kts
14-Jun-15 22:27 33.796732 -119.035336 168 11505ft 376kts
14-Jun-15 22:28 33.706244 -119.017847 155 9489ft 333kts
14-Jun-15 22:29 33.617601 -118.958000 158 9269ft 363kts
14-Jun-15 22:30 33.544900 -118.886822 112 9695ft 374kts
14-Jun-15 22:31 33.519873 -118.781548 100 10253ft 360kts
14-Jun-15 22:32 33.501928 -118.667442 94 11390ft 418kts
14-Jun-15 22:33 33.497119 -118.532570 94 12270ft 394kts
14-Jun-15 22:34 33.482581 -118.401814 101 11864ft 405kts
14-Jun-15 22:35 33.465033 -118.291890 98 11301ft 375kts
14-Jun-15 22:36 33.449288 -118.177827 98 10469ft 358kts
14-Jun-15 22:37 33.438203 -118.069568 98 10055ft 347kts
14-Jun-15 22:38 33.417064 -117.960890 103 10220ft 390kts
14-Jun-15 22:39 33.392520 -117.851007 108 11286ft 414kts
14-Jun-15 22:40 33.349722 -117.737364 120 11628ft 396kts
14-Jun-15 22:41 33.292495 -117.630618 125 11161ft 408kts
14-Jun-15 22:42 33.229950 -117.541883 129 7938ft 353kts
14-Jun-15 22:43 33.174832 -117.460026 127 4928ft 351kts
14-Jun-15 22:44 33.111051 -117.394062 142 3800ft 313kts
14-Jun-15 22:45 33.044805 -117.329406 139 3474ft 315kts
14-Jun-15 22:46 32.976632 -117.270747 145 1826ft 332kts
14-Jun-15 22:47 32.906202 -117.210484 142 1904ft 358kts
14-Jun-15 22:48 32.844863 -117.132820 123 3223ft 332kts
14-Jun-15 22:49 32.812498 -117.075104 127 3058ft 322kts
14-Jun-15 22:50 32.774462 -117.045375 155 2526ft 249kts
14-Jun-15 22:51 32.725955 -116.998641 131 1697ft 254kts
14-Jun-15 22:52 32.707746 -116.975166 142 1878ft 232kts
14-Jun-15 22:53 32.692758 -117.027604 278 1373ft 260kts
14-Jun-15 22:54 32.714546 -117.111255 288 756ft 273kts
14-Jun-15 22:55 32.729397 -117.172077 284 101ft 153kts
14-Jun-15 22:56 32.735256 -117.196722 281 22ft 43kts
14-Jun-15 22:57 32.733830 -117.199034 174 22ft 12kts
14-Jun-15 22:58 32.733647 -117.198914 145 22ft 0kts
14-Jun-15 23:00 32.733647 -117.198914 145 22ft 0kts
14-Jun-15 23:01 32.733647 -117.198914 145 22ft 0kts
14-Jun-15 23:02 32.733647 -117.198914 145 22ft 0kts
14-Jun-15 23:03 32.733647 -117.198914 145 22ft 0kts
14-Jun-15 23:04 32.733647 -117.198914 145 22ft 0kts
14-Jun-15 23:05 32.733647 -117.198914 145 22ft 0kts
14-Jun-15 23:06 32.733647 -117.198914 145 22ft 0kts
14-Jun-15 23:07 32.733647 -117.198914 145 22ft 0kts
14-Jun-15 23:08 32.733647 -117.198914 145 22ft 0kts
14-Jun-15 23:09 32.733647 -117.198914 145 22ft 0kts
14-Jun-15 23:10 32.733647 -117.198914 145 22ft 0kts
14-Jun-15 23:11 32.733647 -117.198914 145 22ft 0kts

Navigation Log

Ident Type
Flight plan parsing failed, navigation log unavailable